NEODyS-2

Near Earth Objects - Dynamic Site
NEODyS ∴ Observatories ∴ Site 691 ∴ Obs & residuals
Contact »
691  ▹ 
OBSERVATIONS AND RESIDUALS

691-Steward Observatory, Kitt Peak-Spacewatch

Detections | Residuals | Detections & Residuals

[1-200] [201-400] [401-600] [601-800] [801-1000] [1001-1200] [1201-1400] [1401-1600] [1601-1800] [1801-2000] [2001-2200] [2201-2400] [2401-2600] [2601-2800] [2801-3000] [3001-3200] [3201-3400] [3401-3600] [3601-3800] [3801-4000] [4001-4200] [4201-4400] [4401-4600] [4601-4800] [4801-5000] [5001-5200] [5201-5400] [5401-5600] [5601-5800] [5801-6000] [6001-6200] [6201-6400] [6401-6600] [6601-6800] [6801-7000] [7001-7200] [7201-7400] [7401-7600] [7601-7800] [7801-8000] [8001-8200] [8201-8400] [8401-8600] [8601-8800] [8801-9000] [9001-9200] [9201-9400] [9401-9600] [9601-9800] [9801-10000] [10001-10200] [10201-10400] [10401-10600] [10601-10800] [10801-11000] [11001-11200] [11201-11400] [11401-11600] [11601-11800] [11801-12000] [12001-12200] [12201-12400] [12401-12600] [12601-12800] [12801-13000] [13001-13200] [13201-13400] [13401-13600] [13601-13800] [13801-14000] [14001-14200] [14201-14400] [14401-14600] [14601-14800] [14801-15000] [15001-15200] [15201-15400] [15401-15600] [15601-15800] [15801-16000] [16001-16200] [16201-16400] [16401-16600] [16601-16800] [16801-17000] [17001-17200] [17201-17400] [17401-17600] [17601-17800] [17801-18000] [18001-18200] [18201-18400] [18401-18600] [18601-18800] [18801-19000] [19001-19200] [19201-19400] [19401-19600] [19601-19800] [19801-20000] [20001-20200] [20201-20400] [20401-20600] [20601-20800] [20801-21000] [21001-21200] [21201-21400] [21401-21600] [21601-21800] [21801-22000] [22001-22200] [22201-22400] [22401-22600] [22601-22800] [22801-23000] [23001-23200] [23201-23400] [23401-23600] [23601-23800] [23801-24000] [24001-24200] [24201-24400] [24401-24600] [24601-24800] [24801-25000] [25001-25200] [25201-25400] [25401-25600] [25601-25800] [25801-26000] [26001-26200] [26201-26400] [26401-26600] [26601-26800] [26801-27000] [27001-27200] [27201-27400] [27401-27600] [27601-27800] [27801-28000] [28001-28200] [28201-28400] [28401-28600] [28601-28800] [28801-29000] [29001-29200] [29201-29400] [29401-29600] [29601-29800] [29801-30000] [30001-30200] [30201-30400] [30401-30600] [30601-30800] [30801-31000] [31001-31200] [31201-31400] [31401-31600] [31601-31800] [31801-32000] [32001-32200] [32201-32400] [32401-32600] [32601-32800] [32801-33000] [33001-33200] [33201-33400] [33401-33600] [33601-33800] [33801-34000] [34001-34200] [34201-34400] [34401-34600] [34601-34800] [34801-35000] [35001-35200] [35201-35400] [35401-35600] [35601-35800] [35801-36000] [36001-36200] [36201-36400] [36401-36600] [36601-36800] [36801-37000] [37001-37200] [37201-37400] [37401-37600] [37601-37800] [37801-38000] [38001-38200] [38201-38400] [38401-38600] [38601-38800] [38801-39000] [39001-39200] [39201-39400] [39401-39600] [39601-39800] [39801-40000] [40001-40200] [40201-40400] [40401-40600] [40601-40800] [40801-41000] [41001-41200] [41201-41400] [41401-41600] [41601-41800] [41801-42000] [42001-42200] [42201-42400] [42401-42600] [42601-42800] [42801-43000] [43001-43200] [43201-43400] [43401-43600] [43601-43800] [43801-44000] [44001-44200] [44201-44400] [44401-44600] [44601-44800] [44801-45000] [45001-45200] [45201-45400] [45401-45600] [45601-45800] [45801-46000] [46001-46200] [46201-46400] [46401-46600] [46601-46800] [46801-47000] [47001-47200] [47201-47400] [47401-47600] [47601-47800] [47801-48000] [48001-48200] [48201-48400] [48401-48600] [48601-48800] [48801-49000] [49001-49200] [49201-49400] [49401-49600] [49601-49800] [49801-50000] [50001-50200] [50201-50388]

Designation T Tech N Date Right Ascension Declination Apparent Magnitude Star Catalog Site code χ Used A Used M
yr-mo-day precision hr:min:sec precision rms F bias residual deg min sec precision rms F bias residual mag/col rms residual
2015MT96 O C H 2015-11-11.15217 1.000E-05 21:27:44.010 1.500E-01 0.500 F -0.062 0.445 -24° 35' 07.20" 1.000E-01 0.500 F 0.567 0.819 20.5 V 0.70 0.57 o 691 1.89 Yes Yes
2015UK52 O C 2015-11-11.17234 1.000E-05 22:17:22.740 1.500E-01 0.500 F -0.011 -0.177 +26° 15' 31.80" 1.000E-01 0.500 F 0.322 0.249 19.4 V 0.70 -0.18 o 691 0.61 Yes Yes
2015UK52 O C 2015-11-11.17437 1.000E-05 22:17:22.900 1.500E-01 0.500 F -0.011 -0.303 +26° 15' 23.90" 1.000E-01 0.500 F 0.322 0.142 19.3 V 0.70 -0.28 o 691 0.67 Yes Yes
2015UK52 O C 2015-11-11.17639 1.000E-05 22:17:23.080 1.500E-01 0.500 F -0.011 -0.152 +26° 15' 16.30" 1.000E-01 0.500 F 0.322 0.299 19.5 V 0.70 -0.08 o 691 0.67 Yes Yes
2015VX1 O C H 2015-11-11.19732 1.000E-05 00:52:34.970 1.500E-01 0.500 F -0.158 -0.483 -14° 46' 42.40" 1.000E-01 0.500 F 0.159 -1.163 20.6 V 0.70 -0.30 o 691 2.56 Yes Yes
2015VX1 O C H 2015-11-11.19935 1.000E-05 00:52:34.930 1.500E-01 0.500 F -0.158 1.487 -14° 46' 35.10" 1.000E-01 0.500 F 0.159 -1.546 o 691 4.19 No No
2015VX1 O C H 2015-11-11.20138 1.000E-05 00:52:34.620 1.500E-01 0.500 F -0.158 -0.460 -14° 46' 26.30" 1.000E-01 0.500 F 0.159 -0.429 20.5 V 0.70 -0.40 o 691 1.26 Yes Yes
2009FD O C 2015-11-11.23919 1.000E-05 00:20:32.810 1.500E-01 0.500 F -0.143 -0.205 +18° 35' 43.90" 1.000E-01 0.500 F 0.388 -0.601 19.3 V 0.70 -0.09 o 691 1.27 Yes Yes
2009FD O C 2015-11-11.24075 1.000E-05 00:20:33.360 1.500E-01 0.500 F -0.143 0.062 +18° 35' 44.00" 1.000E-01 0.500 F 0.388 0.174 19.4 V 0.70 0.01 o 691 0.37 Yes Yes
2009FD O C 2015-11-11.24231 1.000E-05 00:20:33.880 1.500E-01 0.500 F -0.143 -0.098 +18° 35' 43.20" 1.000E-01 0.500 F 0.388 0.050 19.5 V 0.70 0.11 o 691 0.22 Yes Yes
2015TY178 O C H 2015-11-11.26315 1.000E-05 02:37:59.200 1.500E-01 0.500 F -0.229 1.216 -10° 14' 17.00" 1.000E-01 0.500 F 0.163 -1.358 o 691 3.61 No No
2015TY178 O C H 2015-11-11.26720 1.000E-05 02:37:59.010 1.500E-01 0.500 F -0.229 -0.692 -10° 14' 25.60" 1.000E-01 0.500 F 0.163 0.450 o 691 1.67 Yes No
2015VX O C H 2015-11-11.27517 1.000E-05 01:41:37.340 1.500E-01 0.500 F -0.168 -0.063 +23° 35' 49.10" 1.000E-01 0.500 F 0.323 0.413 21.3 V 0.70 0.41 o 691 0.88 Yes Yes
2015VX O C H 2015-11-11.27892 1.000E-05 01:41:37.580 1.500E-01 0.500 F -0.168 0.704 +23° 35' 46.30" 1.000E-01 0.500 F 0.323 1.071 21.1 V 0.70 0.21 o 691 2.69 Yes Yes
2015TW237 O C H 2015-11-11.28210 1.000E-05 02:16:57.470 1.500E-01 0.500 F -0.226 -0.224 +11° 02' 59.30" 1.000E-01 0.500 F 0.193 0.415 20.4 V 0.70 0.50 o 691 0.95 Yes Yes
2015TW237 O C H 2015-11-11.28569 1.000E-05 02:16:57.050 1.500E-01 0.500 F -0.226 0.051 +11° 03' 08.90" 1.000E-01 0.500 F 0.193 -0.233 o 691 0.48 Yes No
2015TQ178 O C H 2015-11-11.30369 1.000E-05 02:10:15.730 1.500E-01 0.500 F -0.298 -0.193 +19° 04' 38.40" 1.000E-01 0.500 F 0.184 -0.849 21.5 V 0.70 0.08 o 691 1.75 Yes Yes
2015TQ178 O C H 2015-11-11.30753 1.000E-05 02:10:15.520 1.500E-01 0.500 F -0.298 0.089 +19° 04' 36.50" 1.000E-01 0.500 F 0.184 -0.205 21.4 V 0.70 -0.02 o 691 0.45 Yes Yes
2015VH64 O C H 2015-11-12.19101 1.000E-05 02:10:42.480 1.500E-01 0.500 F -0.270 -0.659 +13° 25' 11.50" 1.000E-01 0.500 F 0.216 -0.239 20.6 V 0.70 0.14 o 691 1.42 Yes Yes
2015VH64 O C H 2015-11-12.19281 1.000E-05 02:10:42.150 1.500E-01 0.500 F -0.270 1.213 +13° 25' 17.70" 1.000E-01 0.500 F 0.216 0.296 20.7 V 0.70 0.24 o 691 2.54 Yes Yes
2015VH64 O C H 2015-11-12.19460 1.000E-05 02:10:41.600 1.500E-01 0.500 F -0.270 -0.159 +13° 25' 23.10" 1.000E-01 0.500 F 0.216 0.062 20.4 V 0.70 -0.06 o 691 0.35 Yes Yes
2015UH51 O C 2015-11-12.20959 1.000E-05 02:50:58.070 1.500E-01 0.500 F -0.168 0.155 +07° 46' 17.60" 1.000E-01 0.500 F 0.352 -0.357 20.9 V 0.70 -0.17 o 691 0.78 Yes Yes
2015UH51 O C 2015-11-12.21184 1.000E-05 02:50:57.610 1.500E-01 0.500 F -0.168 -0.369 +07° 46' 19.50" 1.000E-01 0.500 F 0.352 -0.215 21.1 V 0.70 0.03 o 691 0.86 Yes Yes
2015UH51 O C 2015-11-12.21410 1.000E-05 02:50:57.190 1.500E-01 0.500 F -0.168 -0.270 +07° 46' 21.20" 1.000E-01 0.500 F 0.352 -0.281 21.1 V 0.70 0.03 o 691 0.78 Yes Yes
2015UE67 O C H 2015-11-12.21707 1.000E-05 03:12:35.170 1.500E-01 0.500 F -0.160 -0.155 +04° 40' 36.40" 1.000E-01 0.500 F 0.250 0.022 21.1 V 0.70 0.02 o 691 0.32 Yes Yes
2015UE67 O C H 2015-11-12.22072 1.000E-05 03:12:35.040 1.500E-01 0.500 F -0.160 0.464 +04° 40' 40.40" 1.000E-01 0.500 F 0.250 0.465 21.3 V 0.70 0.22 o 691 1.33 Yes Yes
2015UE67 O C H 2015-11-12.22438 1.000E-05 03:12:34.810 1.500E-01 0.500 F -0.160 -0.400 +04° 40' 43.50" 1.000E-01 0.500 F 0.250 -0.002 20.9 V 0.70 -0.18 o 691 0.81 Yes Yes
2015UC67 O C 2015-11-12.26293 1.000E-05 03:33:57.080 1.500E-01 0.500 F -0.439 -0.276 +12° 36' 29.80" 1.000E-01 0.500 F 0.157 -0.137 19.8 V 0.70 0.02 o 691 0.62 Yes Yes
2015UC67 O C 2015-11-12.26498 1.000E-05 03:33:56.850 1.500E-01 0.500 F -0.439 -0.140 +12° 36' 25.70" 1.000E-01 0.500 F 0.157 0.047 19.9 V 0.70 0.12 o 691 0.30 Yes Yes
2015UC67 O C 2015-11-12.26704 1.000E-05 03:33:56.600 1.500E-01 0.500 F -0.439 -0.280 +12° 36' 21.20" 1.000E-01 0.500 F 0.157 -0.147 19.8 V 0.70 0.02 o 691 0.63 Yes Yes
2015UC O C 2015-11-12.26941 1.000E-05 03:55:05.780 1.500E-01 0.500 F -0.236 -0.151 +03° 28' 09.80" 1.000E-01 0.500 F 0.058 -0.621 19.7 V 0.70 -0.47 o 691 1.29 Yes Yes
2015UC O C 2015-11-12.27097 1.000E-05 03:55:06.560 1.500E-01 0.500 F -0.236 0.226 +03° 28' 11.90" 1.000E-01 0.500 F 0.058 -0.084 20.1 V 0.70 -0.07 o 691 0.49 Yes Yes
2015UC O C 2015-11-12.27253 1.000E-05 03:55:07.250 1.500E-01 0.500 F -0.236 -0.739 +03° 28' 13.80" 1.000E-01 0.500 F 0.058 0.254 19.9 V 0.70 -0.27 o 691 1.58 Yes Yes
2015RG36 O C 2015-11-13.07644 1.000E-05 22:39:31.960 1.500E-01 0.500 F -0.100 -0.258 -10° 14' 54.50" 1.000E-01 0.500 F 0.308 -0.353 19.7 V 0.70 -0.11 o 691 0.88 Yes Yes
2015UF O C H 2015-11-13.07644 1.000E-05 22:43:47.340 1.500E-01 0.500 F -0.127 -0.524 -10° 20' 54.90" 1.000E-01 0.500 F 0.320 -0.197 21.0 V 0.70 -0.10 o 691 1.13 Yes Yes
2015RG36 O C 2015-11-13.08195 1.000E-05 22:39:32.370 1.500E-01 0.500 F -0.100 -0.236 -10° 14' 38.40" 1.000E-01 0.500 F 0.308 -0.335 19.7 V 0.70 -0.11 o 691 0.82 Yes Yes
2015UF O C H 2015-11-13.08195 1.000E-05 22:43:47.670 1.500E-01 0.500 F -0.127 0.390 -10° 20' 55.80" 1.000E-01 0.500 F 0.320 0.416 21.1 V 0.70 0.00 o 691 1.15 Yes Yes
2015RG36 O C 2015-11-13.08747 1.000E-05 22:39:32.760 1.500E-01 0.500 F -0.100 -0.515 -10° 14' 22.10" 1.000E-01 0.500 F 0.308 -0.154 19.7 V 0.70 -0.11 o 691 1.08 Yes Yes
2015UF O C H 2015-11-13.08747 1.000E-05 22:43:47.920 1.500E-01 0.500 F -0.127 0.118 -10° 20' 57.00" 1.000E-01 0.500 F 0.320 0.728 21.3 V 0.70 0.20 o 691 1.48 Yes Yes
2009FD O C 2015-11-13.12600 1.000E-05 00:30:48.030 1.500E-01 0.500 F -0.112 -0.200 +18° 23' 58.50" 1.000E-01 0.500 F 0.248 -0.079 19.8 V 0.70 0.13 o 691 0.43 Yes Yes
2009FD O C 2015-11-13.12802 1.000E-05 00:30:48.590 1.500E-01 0.500 F -0.112 0.017 +18° 23' 57.70" 1.000E-01 0.500 F 0.248 -0.243 19.7 V 0.70 0.03 o 691 0.49 Yes Yes
2009FD O C 2015-11-13.13005 1.000E-05 00:30:49.130 1.500E-01 0.500 F -0.112 -0.085 +18° 23' 57.50" 1.000E-01 0.500 F 0.248 0.198 19.7 V 0.70 0.03 o 691 0.43 Yes Yes
2015UC67 O C 2015-11-13.19416 1.000E-05 03:32:13.910 1.500E-01 0.500 F -0.363 0.033 +12° 04' 02.90" 1.000E-01 0.500 F 0.125 0.418 20.0 V 0.70 0.23 o 691 0.84 Yes Yes
2015UC67 O C 2015-11-13.19622 1.000E-05 03:32:13.650 1.500E-01 0.500 F -0.363 -0.299 +12° 03' 58.20" 1.000E-01 0.500 F 0.125 -0.012 19.9 V 0.70 0.13 o 691 0.60 Yes Yes
2015UC67 O C 2015-11-13.19827 1.000E-05 03:32:13.400 1.500E-01 0.500 F -0.363 -0.500 +12° 03' 55.10" 1.000E-01 0.500 F 0.125 1.138 20.1 V 0.70 0.33 o 691 2.49 Yes Yes
2007LD O C H 2015-11-13.27347 1.000E-05 03:55:48.830 1.500E-01 0.500 F -0.211 0.343 +14° 57' 27.20" 1.000E-01 0.500 F 0.151 -0.035 21.1 V 0.70 0.37 o 691 0.69 Yes Yes
2015VK142 O C 2015-11-13.27819 1.000E-05 04:11:47.710 1.500E-01 0.500 F -0.197 -0.211 +15° 31' 02.30" 1.000E-01 0.500 F 0.179 0.097 20.7 V 0.70 -0.53 o 691 0.47 Yes Yes
2007LD O C H 2015-11-13.29416 1.000E-05 03:55:46.900 1.500E-01 0.500 F -0.211 -0.301 +14° 57' 05.40" 1.000E-01 0.500 F 0.151 -0.377 20.9 V 0.70 0.17 o 691 0.97 Yes Yes
2015VK142 O C 2015-11-13.30131 1.000E-05 04:11:45.460 1.500E-01 0.500 F -0.197 -0.227 +15° 30' 54.10" 1.000E-01 0.500 F 0.179 0.061 20.8 V 0.70 -0.43 o 691 0.47 Yes Yes
2007LD O C H 2015-11-13.31544 1.000E-05 03:55:45.000 1.500E-01 0.500 F -0.211 0.313 +14° 56' 44.20" 1.000E-01 0.500 F 0.151 0.536 21.0 V 0.70 0.27 o 691 1.25 Yes Yes
2015VK142 O C 2015-11-13.32106 1.000E-05 04:11:43.530 1.500E-01 0.500 F -0.197 -0.323 +15° 30' 47.30" 1.000E-01 0.500 F 0.179 0.268 20.6 V 0.70 -0.63 o 691 0.84 Yes Yes
2002UR3 O C 2015-11-13.40241 1.000E-05 03:17:01.180 1.500E-01 0.500 F -0.233 -0.043 +12° 07' 10.40" 1.000E-01 0.500 F 0.311 0.055 16.0 V 0.70 0.15 o 691 0.14 Yes Yes
2002UR3 O C 2015-11-13.41889 1.000E-05 03:16:54.120 1.500E-01 0.500 F -0.233 -0.118 +12° 07' 30.00" 1.000E-01 0.500 F 0.311 0.007 16.1 V 0.70 0.25 o 691 0.24 Yes Yes
2002UR3 O C 2015-11-13.43304 1.000E-05 03:16:48.070 1.500E-01 0.500 F -0.233 -0.035 +12° 07' 46.90" 1.000E-01 0.500 F 0.311 0.053 16.1 V 0.70 0.25 o 691 0.13 Yes Yes
2013GJ35 O C 2015-11-18.50193 1.000E-05 10:56:14.140 1.500E-01 0.500 F 0.110 -0.173 +09° 18' 18.10" 1.000E-01 0.500 F 0.065 0.074 18.3 V 0.70 0.13 o 691 0.38 Yes Yes
2013GJ35 O C 2015-11-18.51392 1.000E-05 10:56:15.850 1.500E-01 0.500 F 0.110 -0.218 +09° 17' 35.40" 1.000E-01 0.500 F 0.065 -0.083 18.2 V 0.70 0.03 o 691 0.47 Yes Yes
2013GJ35 O C 2015-11-18.52616 1.000E-05 10:56:17.600 1.500E-01 0.500 F 0.110 -0.175 +09° 16' 52.00" 1.000E-01 0.500 F 0.065 -0.040 18.3 V 0.70 0.13 o 691 0.36 Yes Yes
Masaakikoyama O C 2015-11-19.35274 1.000E-05 04:12:07.070 1.500E-01 0.500 F -0.283 -0.489 +13° 10' 50.80" 1.000E-01 0.500 F 0.084 -0.168 19.0 V 0.70 0.04 o 691 1.04 Yes Yes
Masaakikoyama O C 2015-11-19.36239 1.000E-05 04:12:06.250 1.500E-01 0.500 F -0.283 -0.362 +13° 10' 47.70" 1.000E-01 0.500 F 0.084 -0.104 18.9 V 0.70 -0.06 o 691 0.75 Yes Yes
Masaakikoyama O C 2015-11-19.37205 1.000E-05 04:12:05.410 1.500E-01 0.500 F -0.283 -0.520 +13° 10' 44.70" 1.000E-01 0.500 F 0.084 0.068 18.8 V 0.70 -0.15 o 691 1.05 Yes Yes
2012XD112 O C 2015-11-23.24390 1.000E-05 04:20:15.860 1.500E-01 0.500 F -0.188 -0.504 +12° 59' 31.30" 1.000E-01 0.500 F 0.176 0.102 20.1 V 0.70 0.02 o 691 1.03 Yes Yes
2012XD112 O C 2015-11-23.24898 1.000E-05 04:20:15.190 1.500E-01 0.500 F -0.188 -0.055 +12° 59' 30.00" 1.000E-01 0.500 F 0.176 0.169 20.1 V 0.70 0.02 o 691 0.36 Yes Yes
2012XD112 O C 2015-11-23.25406 1.000E-05 04:20:14.470 1.500E-01 0.500 F -0.188 -0.326 +12° 59' 28.60" 1.000E-01 0.500 F 0.176 0.140 20.1 V 0.70 0.02 o 691 0.71 Yes Yes
2015VD65 O C m 2015-11-23.25976 1.000E-05 03:58:13.380 1.500E-01 0.500 F -0.310 -0.951 -05° 44' 15.30" 1.000E-01 0.500 F 0.172 1.227 19.3 V 0.70 -0.54 o 691 3.14 Yes Yes
2015VD65 O C m 2015-11-23.26438 1.000E-05 03:58:13.700 1.500E-01 0.500 F -0.310 -0.130 -05° 44' 42.10" 1.000E-01 0.500 F 0.172 -0.264 19.8 V 0.70 -0.04 o 691 0.59 Yes Yes
2015VD65 O C m 2015-11-23.26900 1.000E-05 03:58:13.980 1.500E-01 0.500 F -0.310 0.099 -05° 45' 07.30" 1.000E-01 0.500 F 0.172 -0.158 o 691 0.38 Yes No
2015VD66 O C m 2015-11-23.27472 1.000E-05 03:49:33.090 1.500E-01 0.500 F -0.323 0.719 +02° 15' 15.30" 1.000E-01 0.500 F 0.224 -0.447 20.5 V 0.70 -0.06 o 691 1.70 Yes Yes
2015VD66 O C m 2015-11-23.27957 1.000E-05 03:49:32.210 1.500E-01 0.500 F -0.323 -0.349 +02° 15' 21.90" 1.000E-01 0.500 F 0.224 -0.282 20.2 V 0.70 -0.36 o 691 0.90 Yes Yes
2015VD66 O C m 2015-11-23.28911 1.000E-05 03:49:30.640 1.500E-01 0.500 F -0.323 -0.033 +02° 15' 34.50" 1.000E-01 0.500 F 0.224 -0.339 20.1 V 0.70 -0.46 o 691 0.68 Yes Yes
2013BO73 O C H 2015-11-23.31841 1.000E-05 08:19:17.710 1.500E-01 0.500 F -0.040 -0.508 +28° 46' 03.30" 1.000E-01 0.500 F 0.215 -0.218 o 691 1.11 Yes No
2013BO73 O C H 2015-11-23.32418 1.000E-05 08:19:17.400 1.500E-01 0.500 F -0.040 -0.363 +28° 46' 06.20" 1.000E-01 0.500 F 0.215 -1.109 o 691 2.34 Yes No
2013BO73 O C H 2015-11-23.32995 1.000E-05 08:19:17.090 1.500E-01 0.500 F -0.040 -0.202 +28° 46' 10.40" 1.000E-01 0.500 F 0.215 -0.696 o 691 1.45 Yes No
2015VD65 O C 2015-11-29.31495 1.000E-05 04:05:07.820 1.500E-01 0.500 F -0.253 0.447 -14° 41' 04.90" 1.000E-01 0.500 F 0.108 0.131 20.0 V 0.70 -0.06 o 691 0.94 Yes Yes
2015VD65 O C 2015-11-29.31699 1.000E-05 04:05:07.930 1.500E-01 0.500 F -0.253 0.248 -14° 41' 15.80" 1.000E-01 0.500 F 0.108 -0.401 20.3 V 0.70 0.24 o 691 0.96 Yes Yes
2015VD65 O C 2015-11-29.31902 1.000E-05 04:05:08.050 1.500E-01 0.500 F -0.253 0.203 -14° 41' 25.70" 1.000E-01 0.500 F 0.108 0.016 20.1 V 0.70 0.04 o 691 0.41 Yes Yes
2015OL35 O C 2015-11-30.42620 1.000E-05 11:33:08.740 1.500E-01 0.500 F 0.256 -0.335 -02° 14' 51.10" 1.000E-01 0.500 F 0.071 0.304 19.6 V 0.70 0.24 o 691 0.91 Yes Yes
2015OL35 O C 2015-11-30.42822 1.000E-05 11:33:09.100 1.500E-01 0.500 F 0.256 0.145 -02° 14' 52.40" 1.000E-01 0.500 F 0.071 -0.210 19.5 V 0.70 0.14 o 691 0.51 Yes Yes
2015OL35 O C 2015-11-30.43024 1.000E-05 11:33:09.390 1.500E-01 0.500 F 0.256 -0.422 -02° 14' 52.60" 1.000E-01 0.500 F 0.071 0.377 19.5 V 0.70 0.14 o 691 1.13 Yes Yes
2015VO105 O C 2015-12-01.15418 1.000E-05 01:26:34.150 1.500E-01 0.500 F -0.202 0.320 +05° 53' 25.50" 1.000E-01 0.500 F 0.277 -0.621 o 691 1.40 Yes No
2015VO105 O C 2015-12-01.15620 1.000E-05 01:26:34.670 1.500E-01 0.500 F -0.202 0.162 +05° 53' 23.90" 1.000E-01 0.500 F 0.277 0.030 o 691 0.33 Yes No
2015VO105 O C 2015-12-01.15822 1.000E-05 01:26:35.150 1.500E-01 0.500 F -0.202 -0.591 +05° 53' 21.70" 1.000E-01 0.500 F 0.277 0.082 o 691 1.20 Yes No
2015VY1 O C 2015-12-01.17674 1.000E-05 01:49:12.160 1.500E-01 0.500 F -0.253 -0.304 +13° 32' 37.90" 1.000E-01 0.500 F 0.191 -0.005 o 691 0.62 Yes No
2015VY1 O C 2015-12-01.17876 1.000E-05 01:49:12.200 1.500E-01 0.500 F -0.253 -0.081 +13° 32' 47.00" 1.000E-01 0.500 F 0.191 -0.065 o 691 0.21 Yes No
2015VY1 O C 2015-12-01.18079 1.000E-05 01:49:12.220 1.500E-01 0.500 F -0.253 -0.151 +13° 32' 56.10" 1.000E-01 0.500 F 0.191 -0.169 o 691 0.46 Yes No
2015WT1 O C 2015-12-01.18377 1.000E-05 02:35:00.330 1.500E-01 0.500 F -0.248 0.274 +03° 23' 46.10" 1.000E-01 0.500 F 0.188 0.755 o 691 1.62 Yes No
2015WT1 O C 2015-12-01.18649 1.000E-05 02:35:00.150 1.500E-01 0.500 F -0.248 -0.259 +03° 23' 40.10" 1.000E-01 0.500 F 0.188 0.085 o 691 0.55 Yes No
2015WT1 O C 2015-12-01.18921 1.000E-05 02:35:00.000 1.500E-01 0.500 F -0.248 -0.342 +03° 23' 34.30" 1.000E-01 0.500 F 0.188 -0.385 o 691 1.04 Yes No
2015TE323 O C 2015-12-01.19400 1.000E-05 01:05:10.490 1.500E-01 0.500 F -0.137 -0.287 +00° 14' 27.10" 1.000E-01 0.500 F 0.230 -0.142 o 691 0.64 Yes No
2015TE323 O C 2015-12-01.19998 1.000E-05 01:05:10.230 1.500E-01 0.500 F -0.137 -0.601 +00° 14' 24.80" 1.000E-01 0.500 F 0.230 -0.301 o 691 1.35 Yes No
2015TE323 O C 2015-12-01.20572 1.000E-05 01:05:10.000 1.500E-01 0.500 F -0.137 -0.611 +00° 14' 22.70" 1.000E-01 0.500 F 0.230 -0.347 o 691 1.41 Yes No
2015UC67 O C 2015-12-01.24559 1.000E-05 03:03:00.330 1.500E-01 0.500 F -0.269 -0.058 +02° 57' 27.30" 1.000E-01 0.500 F 0.181 0.201 o 691 0.42 Yes No
2015UC67 O C 2015-12-01.24830 1.000E-05 03:03:00.110 1.500E-01 0.500 F -0.269 -0.087 +02° 57' 23.00" 1.000E-01 0.500 F 0.181 -0.199 o 691 0.44 Yes No
2015UC67 O C 2015-12-01.25079 1.000E-05 03:02:59.920 1.500E-01 0.500 F -0.269 0.067 +02° 57' 19.70" 1.000E-01 0.500 F 0.181 0.084 o 691 0.21 Yes No
2001XN254 O C 2015-12-01.39335 1.000E-05 04:07:16.810 1.500E-01 0.500 F -0.146 -0.313 +22° 04' 25.90" 1.000E-01 0.500 F 0.107 0.050 o 691 0.64 Yes No
2001XN254 O C 2015-12-01.39607 1.000E-05 04:07:16.550 1.500E-01 0.500 F -0.146 -0.302 +22° 04' 24.90" 1.000E-01 0.500 F 0.107 -0.104 o 691 0.64 Yes No
2001XN254 O C 2015-12-01.39879 1.000E-05 04:07:16.290 1.500E-01 0.500 F -0.146 -0.292 +22° 04' 24.20" 1.000E-01 0.500 F 0.107 0.043 o 691 0.59 Yes No
2015XC O C 2015-12-01.43946 1.000E-05 03:58:35.420 1.500E-01 0.500 F -0.171 -0.154 +13° 42' 50.30" 1.000E-01 0.500 F 0.092 0.090 o 691 0.36 Yes No
2015XC O C 2015-12-01.44102 1.000E-05 03:58:34.800 1.500E-01 0.500 F -0.171 -0.223 +13° 42' 58.10" 1.000E-01 0.500 F 0.092 0.187 o 691 0.59 Yes No
2015XC O C 2015-12-01.44258 1.000E-05 03:58:34.190 1.500E-01 0.500 F -0.171 -0.161 +13° 43' 05.60" 1.000E-01 0.500 F 0.092 -0.017 o 691 0.33 Yes No
2003SM84 O C 2015-12-01.47499 1.000E-05 05:02:47.850 1.500E-01 0.500 F -0.010 -0.832 +09° 23' 53.90" 1.000E-01 0.500 F 0.074 -0.004 o 691 1.68 Yes No
2003SM84 O C 2015-12-01.47748 1.000E-05 05:02:47.500 1.500E-01 0.500 F -0.010 -0.396 +09° 23' 52.70" 1.000E-01 0.500 F 0.074 0.141 o 691 0.85 Yes No
2003SM84 O C 2015-12-01.47996 1.000E-05 05:02:47.130 1.500E-01 0.500 F -0.010 -0.284 +09° 23' 51.30" 1.000E-01 0.500 F 0.074 0.082 o 691 0.60 Yes No
1995YR1 O C 2015-12-01.48480 1.000E-05 07:35:43.270 1.500E-01 0.500 F -0.017 -0.318 +16° 28' 48.60" 1.000E-01 0.500 F 0.156 0.000 o 691 0.64 Yes No
1995YR1 O C 2015-12-01.48775 1.000E-05 07:35:43.520 1.500E-01 0.500 F -0.017 -0.376 +16° 28' 47.10" 1.000E-01 0.500 F 0.156 0.303 o 691 0.97 Yes No
1995YR1 O C 2015-12-01.49093 1.000E-05 07:35:43.790 1.500E-01 0.500 F -0.017 -0.433 +16° 28' 45.20" 1.000E-01 0.500 F 0.156 0.350 o 691 1.11 Yes No
2003UL12 O C 2015-12-01.51357 1.000E-05 11:26:05.290 1.500E-01 0.500 F 0.295 -0.049 -25° 57' 38.10" 1.000E-01 0.500 F 0.224 0.179 o 691 0.37 Yes No
2003UL12 O C 2015-12-01.51567 1.000E-05 11:26:05.830 1.500E-01 0.500 F 0.295 -0.284 -25° 57' 40.00" 1.000E-01 0.500 F 0.224 -0.108 o 691 0.60 Yes No
2003UL12 O C 2015-12-01.51778 1.000E-05 11:26:06.390 1.500E-01 0.500 F 0.295 -0.285 -25° 57' 41.70" 1.000E-01 0.500 F 0.224 -0.188 o 691 0.68 Yes No
2015OL35 O C 2015-12-01.52829 1.000E-05 11:36:08.460 1.500E-01 0.500 F 0.256 -0.257 -02° 21' 52.70" 1.000E-01 0.500 F 0.071 0.034 o 691 0.52 Yes No
2015OL35 O C 2015-12-01.53077 1.000E-05 11:36:08.840 1.500E-01 0.500 F 0.256 -0.383 -02° 21' 53.90" 1.000E-01 0.500 F 0.071 -0.225 o 691 0.89 Yes No
2015OL35 O C 2015-12-01.53326 1.000E-05 11:36:09.230 1.500E-01 0.500 F 0.256 -0.380 -02° 21' 54.80" 1.000E-01 0.500 F 0.071 -0.180 o 691 0.84 Yes No
2004BG121 O C 2015-12-02.40725 1.000E-05 05:39:53.680 1.500E-01 0.500 F -0.044 -0.207 -19° 03' 46.00" 1.000E-01 0.500 F -0.192 0.188 19.9 V 0.70 -0.24 o 691 0.56 Yes Yes
2004BG121 O C 2015-12-02.41112 1.000E-05 05:39:53.250 1.500E-01 0.500 F -0.044 0.071 -19° 03' 41.70" 1.000E-01 0.500 F -0.192 0.409 19.9 V 0.70 -0.24 o 691 0.83 Yes Yes
2004BG121 O C 2015-12-02.41500 1.000E-05 05:39:52.780 1.500E-01 0.500 F -0.044 -0.204 -19° 03' 37.90" 1.000E-01 0.500 F -0.192 0.116 19.9 V 0.70 -0.24 o 691 0.47 Yes Yes
1998XN2 O C 2015-12-02.49890 1.000E-05 08:55:36.100 1.500E-01 0.500 F 0.119 -0.401 +16° 49' 06.40" 1.000E-01 0.500 F 0.214 -0.154 18.5 V 0.70 0.19 o 691 0.86 Yes Yes
1998XN2 O C 2015-12-02.50115 1.000E-05 08:55:35.650 1.500E-01 0.500 F 0.119 -0.546 +16° 49' 06.50" 1.000E-01 0.500 F 0.214 -0.264 18.4 V 0.70 0.09 o 691 1.22 Yes Yes
1998XN2 O C 2015-12-02.50341 1.000E-05 08:55:35.230 1.500E-01 0.500 F 0.119 -0.233 +16° 49' 06.70" 1.000E-01 0.500 F 0.214 -0.273 18.4 V 0.70 0.09 o 691 0.72 Yes Yes
2010XC15 O C H 2015-12-03.08546 1.000E-05 23:48:34.420 1.500E-01 0.500 F -0.197 -0.163 -28° 05' 55.20" 1.000E-01 0.500 F 0.453 -0.085 20.5 V 0.70 -0.13 o 691 0.39 Yes Yes
2010XC15 O C H 2015-12-03.08749 1.000E-05 23:48:34.710 1.500E-01 0.500 F -0.197 -0.327 -28° 05' 45.40" 1.000E-01 0.500 F 0.453 -0.390 20.4 V 0.70 -0.23 o 691 1.05 Yes Yes
2010XC15 O C H 2015-12-03.08952 1.000E-05 23:48:35.010 1.500E-01 0.500 F -0.197 -0.357 -28° 05' 35.30" 1.000E-01 0.500 F 0.453 -0.396 20.6 V 0.70 -0.03 o 691 1.11 Yes Yes
2000WP19 O C H 2015-12-03.10866 1.000E-05 23:50:27.070 1.500E-01 0.500 F -0.104 -0.335 +10° 55' 01.10" 1.000E-01 0.500 F 0.292 0.137 20.4 V 0.70 0.20 o 691 0.73 Yes Yes
2000WP19 O C H 2015-12-03.11068 1.000E-05 23:50:27.650 1.500E-01 0.500 F -0.104 0.233 +10° 55' 09.40" 1.000E-01 0.500 F 0.292 0.185 20.3 V 0.70 0.10 o 691 0.61 Yes Yes
2000WP19 O C H 2015-12-03.11271 1.000E-05 23:50:28.170 1.500E-01 0.500 F -0.104 -0.123 +10° 55' 18.30" 1.000E-01 0.500 F 0.292 0.797 20.5 V 0.70 0.30 o 691 1.63 Yes Yes
2015UF O C H 2015-12-03.11734 1.000E-05 23:12:50.540 1.500E-01 0.500 F -0.204 0.640 -10° 37' 42.50" 1.000E-01 0.500 F 0.286 -0.905 o 691 2.25 Yes No
2015UF O C H 2015-12-03.12029 1.000E-05 23:12:50.820 1.500E-01 0.500 F -0.204 -0.155 -10° 37' 41.40" 1.000E-01 0.500 F 0.286 -0.304 o 691 0.69 Yes No
2015UF O C H 2015-12-03.12324 1.000E-05 23:12:51.220 1.500E-01 0.500 F -0.204 0.819 -10° 37' 40.50" 1.000E-01 0.500 F 0.286 0.095 o 691 1.70 Yes No
2015VY1 O C H 2015-12-03.19494 1.000E-05 01:50:04.650 1.500E-01 0.500 F -0.226 0.165 +16° 02' 07.60" 1.000E-01 0.500 F 0.249 -0.445 o 691 0.97 Yes No
2015VY1 O C H 2015-12-03.19696 1.000E-05 01:50:04.710 1.500E-01 0.500 F -0.226 0.450 +16° 02' 16.50" 1.000E-01 0.500 F 0.249 -0.337 o 691 1.14 Yes No
2015VY1 O C H 2015-12-03.19898 1.000E-05 01:50:04.760 1.500E-01 0.500 F -0.226 0.591 +16° 02' 25.50" 1.000E-01 0.500 F 0.249 -0.127 o 691 1.23 Yes No
2015WD2 O C H 2015-12-03.20705 1.000E-05 03:23:41.320 1.500E-01 0.500 F -0.264 -0.306 +12° 26' 42.90" 1.000E-01 0.500 F 0.294 0.225 20.9 V 0.70 0.00 o 691 0.77 Yes Yes
2015WD2 O C H 2015-12-03.21000 1.000E-05 03:23:41.010 1.500E-01 0.500 F -0.264 -0.055 +12° 26' 44.30" 1.000E-01 0.500 F 0.294 -0.218 20.8 V 0.70 -0.10 o 691 0.45 Yes Yes
2015WD2 O C H 2015-12-03.21295 1.000E-05 03:23:40.680 1.500E-01 0.500 F -0.264 -0.097 +12° 26' 46.20" 1.000E-01 0.500 F 0.294 -0.160 21.0 V 0.70 0.10 o 691 0.38 Yes Yes
2009BE58 O C H 2015-12-03.28267 1.000E-05 04:21:12.440 1.500E-01 0.500 F -0.133 -0.217 +14° 34' 51.40" 1.000E-01 0.500 F 0.208 -0.193 20.5 V 0.70 -0.06 o 691 0.58 Yes Yes
2009BE58 O C H 2015-12-03.28493 1.000E-05 04:21:11.870 1.500E-01 0.500 F -0.133 0.645 +14° 34' 50.50" 1.000E-01 0.500 F 0.208 -0.304 20.4 V 0.70 -0.16 o 691 1.43 Yes Yes
2009BE58 O C H 2015-12-03.28718 1.000E-05 04:21:11.190 1.500E-01 0.500 F -0.133 -0.132 +14° 34' 50.00" 1.000E-01 0.500 F 0.208 -0.018 20.5 V 0.70 -0.06 o 691 0.27 Yes Yes
2004BG121 O C 2015-12-03.32587 1.000E-05 05:38:11.880 1.500E-01 0.500 F -0.008 -0.473 -18° 47' 27.70" 1.000E-01 0.500 F -0.126 0.180 20.1 V 0.70 -0.04 o 691 1.02 Yes Yes
2015RJ83 O C H 2015-12-03.32587 1.000E-05 05:37:08.440 1.500E-01 0.500 F -0.052 0.394 -18° 11' 07.30" 1.000E-01 0.500 F -0.083 -0.185 o 691 0.88 Yes No
2004BG121 O C 2015-12-03.32975 1.000E-05 05:38:11.450 1.500E-01 0.500 F -0.008 -0.146 -18° 47' 23.00" 1.000E-01 0.500 F -0.126 0.680 19.8 V 0.70 -0.34 o 691 1.39 Yes Yes
2015RJ83 O C H 2015-12-03.32975 1.000E-05 05:37:08.150 1.500E-01 0.500 F -0.052 0.161 -18° 11' 05.10" 1.000E-01 0.500 F -0.083 -0.458 o 691 0.97 Yes No
2004BG121 O C 2015-12-03.33340 1.000E-05 05:38:11.030 1.500E-01 0.500 F -0.008 -0.057 -18° 47' 20.00" 1.000E-01 0.500 F -0.126 -0.274 20.1 V 0.70 -0.04 o 691 0.56 Yes Yes
2015RJ83 O C H 2015-12-03.33340 1.000E-05 05:37:07.890 1.500E-01 0.500 F -0.052 0.125 -18° 11' 02.70" 1.000E-01 0.500 F -0.083 -0.387 o 691 0.82 Yes No
2015VO105 O C H 2015-12-03.34732 1.000E-05 01:36:47.200 1.500E-01 0.500 F -0.248 -0.281 +05° 16' 15.30" 1.000E-01 0.500 F 0.174 -0.591 o 691 1.31 Yes No
2015VO105 O C H 2015-12-03.34958 1.000E-05 01:36:47.780 1.500E-01 0.500 F -0.248 -0.109 +05° 16' 13.20" 1.000E-01 0.500 F 0.174 -0.538 o 691 1.10 Yes No
2015VO105 O C H 2015-12-03.35183 1.000E-05 01:36:48.430 1.500E-01 0.500 F -0.248 1.133 +05° 16' 10.80" 1.000E-01 0.500 F 0.174 -0.793 o 691 2.79 Yes No
2015VD66 O C H 2015-12-03.35523 1.000E-05 03:22:41.510 1.500E-01 0.500 F -0.018 0.132 +06° 16' 56.70" 1.000E-01 0.500 F 0.360 -0.439 o 691 0.92 Yes No
2015VD66 O C H 2015-12-03.35748 1.000E-05 03:22:41.190 1.500E-01 0.500 F -0.018 0.653 +06° 17' 00.00" 1.000E-01 0.500 F 0.360 -0.548 o 691 1.71 Yes No
2015VD66 O C H 2015-12-03.35973 1.000E-05 03:22:40.780 1.500E-01 0.500 F -0.018 -0.171 +06° 17' 03.30" 1.000E-01 0.500 F 0.360 -0.657 o 691 1.36 Yes No
2003SM84 O C H 2015-12-03.37718 1.000E-05 04:58:13.290 1.500E-01 0.500 F 0.022 0.170 +09° 08' 25.10" 1.000E-01 0.500 F 0.050 0.268 20.8 V 0.70 0.15 o 691 0.64 Yes Yes
2003SM84 O C H 2015-12-03.37991 1.000E-05 04:58:12.850 1.500E-01 0.500 F 0.022 0.053 +09° 08' 23.60" 1.000E-01 0.500 F 0.050 0.072 20.7 V 0.70 0.05 o 691 0.18 Yes Yes
2003SM84 O C H 2015-12-03.38262 1.000E-05 04:58:12.420 1.500E-01 0.500 F 0.022 0.033 +09° 08' 22.50" 1.000E-01 0.500 F 0.050 0.268 20.6 V 0.70 -0.05 o 691 0.54 Yes Yes
2001XN254 O C 2015-12-03.38613 1.000E-05 04:04:09.430 1.500E-01 0.500 F -0.146 -0.354 +21° 54' 12.60" 1.000E-01 0.500 F 0.107 0.059 19.9 V 0.70 0.19 o 691 0.72 Yes Yes
2001XN254 O C 2015-12-03.38908 1.000E-05 04:04:09.130 1.500E-01 0.500 F -0.146 -0.558 +21° 54' 12.00" 1.000E-01 0.500 F 0.107 0.413 20.1 V 0.70 0.39 o 691 1.39 Yes Yes
2001XN254 O C 2015-12-03.39202 1.000E-05 04:04:08.850 1.500E-01 0.500 F -0.146 -0.499 +21° 54' 10.80" 1.000E-01 0.500 F 0.107 0.165 20.7 V 0.70 0.99 o 691 1.05 Yes Yes
2015XJ55 O C H 2015-12-03.40902 1.000E-05 04:37:36.080 1.500E-01 0.500 F -0.161 -2.160 +19° 09' 10.60" 1.000E-01 0.500 F 0.233 -0.201 o 691 4.23 No No
2015XJ55 O C H 2015-12-03.41104 1.000E-05 04:37:34.730 1.500E-01 0.500 F -0.161 0.112 +19° 09' 13.60" 1.000E-01 0.500 F 0.233 -0.827 o 691 1.70 Yes No
2015XJ55 O C H 2015-12-03.41308 1.000E-05 04:37:33.190 1.500E-01 0.500 F -0.161 -0.112 +19° 09' 17.60" 1.000E-01 0.500 F 0.233 -0.484 o 691 1.01 Yes No
2009XE11 O C H 2015-12-03.43534 1.000E-05 07:34:00.320 1.500E-01 0.500 F -0.004 0.749 +20° 49' 10.80" 1.000E-01 0.500 F 0.268 -0.652 o 691 2.00 Yes No
2009XE11 O C H 2015-12-03.44339 1.000E-05 07:34:00.140 1.500E-01 0.500 F -0.004 0.545 +20° 49' 13.20" 1.000E-01 0.500 F 0.268 -0.579 o 691 1.60 Yes No
2009XE11 O C H 2015-12-03.45166 1.000E-05 07:33:59.950 1.500E-01 0.500 F -0.004 0.266 +20° 49' 15.60" 1.000E-01 0.500 F 0.268 -0.566 o 691 1.26 Yes No
1995YR1 O C H 2015-12-03.45758 1.000E-05 07:38:57.670 1.500E-01 0.500 F 0.069 -1.202 +16° 07' 35.10" 1.000E-01 0.500 F 0.124 0.799 19.8 V 0.70 -0.11 o 691 2.89 Yes Yes
1995YR1 O C H 2015-12-03.46076 1.000E-05 07:38:58.040 1.500E-01 0.500 F 0.069 -0.222 +16° 07' 32.30" 1.000E-01 0.500 F 0.124 0.236 20.2 V 0.70 0.29 o 691 0.65 Yes Yes
1995YR1 O C H 2015-12-03.46395 1.000E-05 07:38:58.340 1.500E-01 0.500 F 0.069 -0.267 +16° 07' 30.00" 1.000E-01 0.500 F 0.124 0.182 20.2 V 0.70 0.29 o 691 0.65 Yes Yes
1998XN2 O C H 2015-12-03.46760 1.000E-05 08:52:44.650 1.500E-01 0.500 F 0.026 -0.230 +16° 50' 47.20" 1.000E-01 0.500 F 0.201 -0.112 18.7 V 0.70 0.38 o 691 0.51 Yes Yes
1998XN2 O C H 2015-12-03.47008 1.000E-05 08:52:44.160 1.500E-01 0.500 F 0.026 -0.369 +16° 50' 47.40" 1.000E-01 0.500 F 0.201 -0.191 18.6 V 0.70 0.28 o 691 0.83 Yes Yes
1998XN2 O C H 2015-12-03.47257 1.000E-05 08:52:43.680 1.500E-01 0.500 F 0.026 -0.336 +16° 50' 47.70" 1.000E-01 0.500 F 0.201 -0.170 18.7 V 0.70 0.38 o 691 0.76 Yes Yes
2011HJ7 O C H 2015-12-03.47623 1.000E-05 08:52:25.000 1.500E-01 0.500 F 0.049 0.273 +25° 49' 33.10" 1.000E-01 0.500 F 0.333 -0.161 19.3 V 0.70 -0.06 o 691 0.67 Yes Yes
2011HJ7 O C H 2015-12-03.47780 1.000E-05 08:52:23.230 1.500E-01 0.500 F 0.049 0.054 +25° 49' 39.10" 1.000E-01 0.500 F 0.333 -0.297 19.4 V 0.70 0.04 o 691 0.63 Yes Yes
2011HJ7 O C H 2015-12-03.47936 1.000E-05 08:52:21.480 1.500E-01 0.500 F 0.049 -0.048 +25° 49' 45.70" 1.000E-01 0.500 F 0.333 0.210 19.2 V 0.70 -0.16 o 691 0.45 Yes Yes
2010BB O C H 2015-12-03.50070 1.000E-05 13:10:43.830 1.500E-01 0.500 F 0.378 1.617 +14° 48' 42.70" 1.000E-01 0.500 F 0.233 -0.716 o 691 3.48 No No
2010BB O C H 2015-12-03.50319 1.000E-05 13:10:43.340 1.500E-01 0.500 F 0.378 0.832 +14° 48' 39.80" 1.000E-01 0.500 F 0.233 -1.028 o 691 2.68 Yes No
2010BB O C H 2015-12-03.50567 1.000E-05 13:10:42.840 1.500E-01 0.500 F 0.378 -0.114 +14° 48' 37.00" 1.000E-01 0.500 F 0.233 -1.249 o 691 2.53 Yes No
2003UL12 O C H 2015-12-03.52798 1.000E-05 11:35:02.920 1.500E-01 0.500 F 0.417 -0.206 -26° 21' 36.50" 1.000E-01 0.500 F 0.254 -0.003 19.1 V 0.70 0.08 o 691 0.40 Yes Yes
2003UL12 O C H 2015-12-03.53023 1.000E-05 11:35:03.520 1.500E-01 0.500 F 0.417 0.001 -26° 21' 38.10" 1.000E-01 0.500 F 0.254 -0.062 19.1 V 0.70 0.08 o 691 0.12 Yes Yes
2003UL12 O C H 2015-12-03.53249 1.000E-05 11:35:04.110 1.500E-01 0.500 F 0.417 0.039 -26° 21' 39.80" 1.000E-01 0.500 F 0.254 -0.216 19.2 V 0.70 0.18 o 691 0.44 Yes Yes
1996AS1 O C H 2015-12-04.09896 1.000E-05 22:33:23.560 1.500E-01 0.500 F -0.099 0.201 +12° 16' 01.70" 1.000E-01 0.500 F 0.338 -0.367 21.2 V 0.70 0.15 o 691 0.84 Yes Yes
2006SU131 O C H 2015-12-04.10342 1.000E-05 00:35:45.720 1.500E-01 0.500 F -0.360 -0.152 -11° 28' 28.80" 1.000E-01 0.500 F 0.132 -0.196 21.2 V 0.70 -0.56 o 691 0.50 Yes Yes
2006SU131 O C H 2015-12-04.10639 1.000E-05 00:35:45.850 1.500E-01 0.500 F -0.360 -0.233 -11° 28' 25.90" 1.000E-01 0.500 F 0.132 -0.090 21.4 V 0.70 -0.36 o 691 0.50 Yes Yes
2006SU131 O C H 2015-12-04.10934 1.000E-05 00:35:45.990 1.500E-01 0.500 F -0.360 -0.153 -11° 28' 22.80" 1.000E-01 0.500 F 0.132 0.235 20.9 V 0.70 -0.86 o 691 0.56 Yes Yes
2015TE323 O C 2015-12-04.11377 1.000E-05 01:03:30.830 1.500E-01 0.500 F -0.137 -0.041 -00° 01' 41.00" 1.000E-01 0.500 F 0.230 0.170 21.3 V 0.70 -0.17 o 691 0.35 Yes Yes
2015TE323 O C 2015-12-04.12108 1.000E-05 01:03:30.560 1.500E-01 0.500 F -0.137 -0.449 -00° 01' 43.40" 1.000E-01 0.500 F 0.230 0.001 21.3 V 0.70 -0.17 o 691 0.90 Yes Yes
2015TE323 O C 2015-12-04.12838 1.000E-05 01:03:30.310 1.500E-01 0.500 F -0.137 -0.560 -00° 01' 45.70" 1.000E-01 0.500 F 0.230 -0.071 21.2 V 0.70 -0.27 o 691 1.13 Yes Yes
2015WG9 O C H 2015-12-04.18078 1.000E-05 02:31:41.440 1.500E-01 0.500 F -0.268 -0.232 -07° 06' 18.60" 1.000E-01 0.500 F 0.173 0.324 19.1 V 0.70 0.25 o 691 0.80 Yes Yes
2015WG9 O C H 2015-12-04.18281 1.000E-05 02:31:41.960 1.500E-01 0.500 F -0.268 0.130 -07° 06' 24.10" 1.000E-01 0.500 F 0.173 0.107 19.2 V 0.70 0.35 o 691 0.34 Yes Yes
2015VD65 O C H 2015-12-04.18897 1.000E-05 04:11:01.480 1.500E-01 0.500 F -0.188 0.290 -21° 11' 59.70" 1.000E-01 0.500 F 0.089 -0.178 20.4 V 0.70 0.15 o 691 0.69 Yes Yes
2015VD65 O C H 2015-12-04.19101 1.000E-05 04:11:01.620 1.500E-01 0.500 F -0.188 0.366 -21° 12' 09.80" 1.000E-01 0.500 F 0.089 -1.024 o 691 2.22 Yes No
2015VD65 O C H 2015-12-04.19304 1.000E-05 04:11:01.720 1.500E-01 0.500 F -0.188 -0.105 -21° 12' 17.40" 1.000E-01 0.500 F 0.089 0.582 20.7 V 0.70 0.45 o 691 1.21 Yes Yes
2015WD2 O C H 2015-12-04.22666 1.000E-05 03:21:51.860 1.500E-01 0.500 F -0.264 0.570 +12° 37' 23.20" 1.000E-01 0.500 F 0.294 -0.540 o 691 1.58 Yes No
2015WD2 O C H 2015-12-04.22960 1.000E-05 03:21:51.480 1.500E-01 0.500 F -0.264 -0.218 +12° 37' 25.30" 1.000E-01 0.500 F 0.294 -0.314 o 691 0.77 Yes No
2015XC1 O C H 2015-12-04.24022 1.000E-05 03:50:26.720 1.500E-01 0.500 F -0.085 -0.493 +06° 44' 44.70" 1.000E-01 0.500 F 0.200 -0.896 o 691 2.06 Yes No
2015XC1 O C H 2015-12-04.24317 1.000E-05 03:50:26.550 1.500E-01 0.500 F -0.085 1.038 +06° 44' 43.10" 1.000E-01 0.500 F 0.200 -0.375 o 691 2.22 Yes No
2015XC1 O C H 2015-12-04.24613 1.000E-05 03:50:26.250 1.500E-01 0.500 F -0.085 0.645 +06° 44' 41.40" 1.000E-01 0.500 F 0.200 0.054 21.4 V 0.70 0.20 o 691 1.30 Yes Yes
2015XN O C 2015-12-04.24921 1.000E-05 04:09:10.140 1.500E-01 0.500 F -0.185 -0.139 +03° 04' 16.50" 1.000E-01 0.500 F 0.168 -0.149 20.5 V 0.70 -0.01 o 691 0.41 Yes Yes
2015XN O C 2015-12-04.25170 1.000E-05 04:09:10.490 1.500E-01 0.500 F -0.185 -0.117 +03° 04' 18.50" 1.000E-01 0.500 F 0.168 0.105 20.4 V 0.70 -0.11 o 691 0.32 Yes Yes
2015XN O C 2015-12-04.25419 1.000E-05 04:09:10.840 1.500E-01 0.500 F -0.185 -0.092 +03° 04' 20.20" 1.000E-01 0.500 F 0.168 0.060 20.5 V 0.70 -0.01 o 691 0.22 Yes Yes
2004EO20 O C H 2015-12-04.27487 1.000E-05 05:00:32.630 1.500E-01 0.500 F -0.145 -0.367 +04° 29' 56.40" 1.000E-01 0.500 F 0.059 -1.275 o 691 2.68 Yes No
2004EO20 O C H 2015-12-04.27759 1.000E-05 05:00:32.330 1.500E-01 0.500 F -0.145 0.309 +04° 29' 55.20" 1.000E-01 0.500 F 0.059 -1.334 o 691 2.76 Yes No
2004EO20 O C H 2015-12-04.28031 1.000E-05 05:00:32.010 1.500E-01 0.500 F -0.145 0.688 +04° 29' 54.70" 1.000E-01 0.500 F 0.059 -0.692 o 691 1.97 Yes No
2001CP44 O C 2015-12-04.32248 1.000E-05 06:46:53.900 1.500E-01 0.500 F -0.137 -0.282 +22° 23' 58.00" 1.000E-01 0.500 F 0.148 -0.085 o 691 0.59 Yes No
2001CP44 O C 2015-12-04.34235 1.000E-05 06:46:52.890 1.500E-01 0.500 F -0.137 -0.146 +22° 24' 01.80" 1.000E-01 0.500 F 0.148 -0.092 o 691 0.35 Yes No
2001CP44 O C 2015-12-04.36126 1.000E-05 06:46:51.900 1.500E-01 0.500 F -0.137 -0.398 +22° 24' 05.70" 1.000E-01 0.500 F 0.148 0.199 o 691 0.89 Yes No

[1-200] [201-400] [401-600] [601-800] [801-1000] [1001-1200] [1201-1400] [1401-1600] [1601-1800] [1801-2000] [2001-2200] [2201-2400] [2401-2600] [2601-2800] [2801-3000] [3001-3200] [3201-3400] [3401-3600] [3601-3800] [3801-4000] [4001-4200] [4201-4400] [4401-4600] [4601-4800] [4801-5000] [5001-5200] [5201-5400] [5401-5600] [5601-5800] [5801-6000] [6001-6200] [6201-6400] [6401-6600] [6601-6800] [6801-7000] [7001-7200] [7201-7400] [7401-7600] [7601-7800] [7801-8000] [8001-8200] [8201-8400] [8401-8600] [8601-8800] [8801-9000] [9001-9200] [9201-9400] [9401-9600] [9601-9800] [9801-10000] [10001-10200] [10201-10400] [10401-10600] [10601-10800] [10801-11000] [11001-11200] [11201-11400] [11401-11600] [11601-11800] [11801-12000] [12001-12200] [12201-12400] [12401-12600] [12601-12800] [12801-13000] [13001-13200] [13201-13400] [13401-13600] [13601-13800] [13801-14000] [14001-14200] [14201-14400] [14401-14600] [14601-14800] [14801-15000] [15001-15200] [15201-15400] [15401-15600] [15601-15800] [15801-16000] [16001-16200] [16201-16400] [16401-16600] [16601-16800] [16801-17000] [17001-17200] [17201-17400] [17401-17600] [17601-17800] [17801-18000] [18001-18200] [18201-18400] [18401-18600] [18601-18800] [18801-19000] [19001-19200] [19201-19400] [19401-19600] [19601-19800] [19801-20000] [20001-20200] [20201-20400] [20401-20600] [20601-20800] [20801-21000] [21001-21200] [21201-21400] [21401-21600] [21601-21800] [21801-22000] [22001-22200] [22201-22400] [22401-22600] [22601-22800] [22801-23000] [23001-23200] [23201-23400] [23401-23600] [23601-23800] [23801-24000] [24001-24200] [24201-24400] [24401-24600] [24601-24800] [24801-25000] [25001-25200] [25201-25400] [25401-25600] [25601-25800] [25801-26000] [26001-26200] [26201-26400] [26401-26600] [26601-26800] [26801-27000] [27001-27200] [27201-27400] [27401-27600] [27601-27800] [27801-28000] [28001-28200] [28201-28400] [28401-28600] [28601-28800] [28801-29000] [29001-29200] [29201-29400] [29401-29600] [29601-29800] [29801-30000] [30001-30200] [30201-30400] [30401-30600] [30601-30800] [30801-31000] [31001-31200] [31201-31400] [31401-31600] [31601-31800] [31801-32000] [32001-32200] [32201-32400] [32401-32600] [32601-32800] [32801-33000] [33001-33200] [33201-33400] [33401-33600] [33601-33800] [33801-34000] [34001-34200] [34201-34400] [34401-34600] [34601-34800] [34801-35000] [35001-35200] [35201-35400] [35401-35600] [35601-35800] [35801-36000] [36001-36200] [36201-36400] [36401-36600] [36601-36800] [36801-37000] [37001-37200] [37201-37400] [37401-37600] [37601-37800] [37801-38000] [38001-38200] [38201-38400] [38401-38600] [38601-38800] [38801-39000] [39001-39200] [39201-39400] [39401-39600] [39601-39800] [39801-40000] [40001-40200] [40201-40400] [40401-40600] [40601-40800] [40801-41000] [41001-41200] [41201-41400] [41401-41600] [41601-41800] [41801-42000] [42001-42200] [42201-42400] [42401-42600] [42601-42800] [42801-43000] [43001-43200] [43201-43400] [43401-43600] [43601-43800] [43801-44000] [44001-44200] [44201-44400] [44401-44600] [44601-44800] [44801-45000] [45001-45200] [45201-45400] [45401-45600] [45601-45800] [45801-46000] [46001-46200] [46201-46400] [46401-46600] [46601-46800] [46801-47000] [47001-47200] [47201-47400] [47401-47600] [47601-47800] [47801-48000] [48001-48200] [48201-48400] [48401-48600] [48601-48800] [48801-49000] [49001-49200] [49201-49400] [49401-49600] [49601-49800] [49801-50000] [50001-50200] [50201-50388]